Time;durP1;ratioP1;P1;durP2;ratioP2;P2;SDS_P1;SDS_P2;PMS_P1;PMS_P2;Temp;Humidity;BMP_temperature;BMP_pressure;BME280_temperature;BME280_humidity;BME280_pressure;Samples;Min_cycle;Max_cycle;Signal;HPM_P1;HPM_P2
2023/01/30 00:02:30;;;;;;;;;45.00;36.00;;;;;3.92;47.62;98871.72;6199304;28;96349;-66
2023/01/30 00:05:34;;;;;;;;;43.20;36.00;;;;;3.92;47.61;98860.19;6207219;28;96284;-66
2023/01/30 00:08:38;;;;;;;;;45.40;36.00;;;;;3.91;47.69;98855.88;6206418;28;96668;-67
2023/01/30 00:11:42;;;;;;;;;44.75;35.75;;;;;3.79;47.76;98852.81;6197966;28;96959;-66
2023/01/30 00:14:45;;;;;;;;;47.33;38.00;;;;;3.83;47.76;98834.63;6210964;28;96320;-66
2023/01/30 00:17:48;;;;;;;;;42.00;35.00;;;;;3.74;47.93;98822.38;6200309;28;97014;-66
2023/01/30 00:20:57;;;;;;;;;43.60;35.00;;;;;3.74;47.75;98820.53;6223572;27;96442;-66
2023/01/30 00:24:00;;;;;;;;;45.33;37.67;;;;;3.79;47.68;98812.00;6212219;28;96382;-65
2023/01/30 00:27:03;;;;;;;;;47.00;38.25;;;;;3.85;47.65;98800.63;6199868;28;97039;-66
2023/01/30 00:30:08;;;;;;;;;43.40;35.00;;;;;3.91;47.64;98795.34;6209220;28;97501;-66
2023/01/30 00:33:11;;;;;;;;;42.20;35.00;;;;;3.88;47.78;98786.91;6208996;28;96525;-66
2023/01/30 00:36:16;;;;;;;;;43.00;36.00;;;;;3.98;47.51;98776.81;6210444;28;96128;-67
2023/01/30 00:39:19;;;;;;;;;47.75;38.50;;;;;4.03;47.66;98777.09;6204383;28;96244;-68
2023/01/30 00:49:06;;;;;;;;;46.60;36.00;;;;;4.17;47.45;98749.59;6216454;28;96342;-67
2023/01/30 00:52:11;;;;;;;;;46.75;38.75;;;;;4.16;47.29;98745.25;6211186;28;96869;-67
2023/01/30 00:55:15;;;;;;;;;49.50;40.00;;;;;4.19;47.42;98742.22;6201924;28;96308;-67
2023/01/30 00:58:19;;;;;;;;;44.60;36.00;;;;;4.15;47.50;98724.94;6194080;28;96845;-67
2023/01/30 01:01:22;;;;;;;;;46.50;38.00;;;;;4.27;47.20;98725.28;6218149;28;97618;-67
2023/01/30 01:04:26;;;;;;;;;50.50;41.00;;;;;4.29;47.26;98720.59;6209794;28;96601;-66
2023/01/30 01:07:30;;;;;;;;;44.25;36.00;;;;;4.36;47.04;98700.97;6214712;28;96971;-66
2023/01/30 01:10:34;;;;;;;;;46.80;37.00;;;;;4.40;47.06;98697.97;6188753;28;97188;-66
2023/01/30 01:13:37;;;;;;;;;47.20;37.60;;;;;4.44;46.75;98692.06;6205489;28;96389;-66
2023/01/30 01:16:41;;;;;;;;;48.60;40.00;;;;;4.49;46.81;98689.66;6208596;28;96658;-66
2023/01/30 01:19:44;;;;;;;;;47.50;39.00;;;;;4.53;46.65;98682.91;6197796;28;96312;-66
2023/01/30 01:22:53;;;;;;;;;46.00;38.00;;;;;4.52;46.59;98673.25;6202088;28;96621;-67
2023/01/30 01:25:56;;;;;;;;;45.60;38.40;;;;;4.50;47.02;98669.09;6210403;28;96617;-66
2023/01/30 01:29:00;;;;;;;;;45.00;38.00;;;;;4.48;46.74;98665.81;6204819;28;96738;-67
2023/01/30 01:32:05;;;;;;;;;44.50;37.50;;;;;4.47;46.79;98651.63;6211757;28;96602;-66
2023/01/30 01:35:09;;;;;;;;;45.80;37.40;;;;;4.46;46.79;98657.16;6192516;28;96809;-66
2023/01/30 01:38:14;;;;;;;;;50.80;40.40;;;;;4.42;46.64;98659.38;6202765;28;96917;-66
2023/01/30 01:41:18;;;;;;;;;43.60;35.60;;;;;4.38;46.86;98643.94;6201878;28;99226;-66
2023/01/30 01:44:25;;;;;;;;;47.00;38.80;;;;;4.37;46.81;98629.75;6177702;28;98898;-66
2023/01/30 01:47:28;;;;;;;;;45.50;37.50;;;;;4.29;46.97;98622.69;6212544;28;98423;-66
2023/01/30 01:50:40;;;;;;;;;49.80;38.80;;;;;4.26;47.18;98619.56;6208129;28;96510;-67
2023/01/30 01:53:50;;;;;;;;;48.40;39.00;;;;;4.20;47.44;98609.66;6205110;28;96947;-66
2023/01/30 01:56:53;;;;;;;;;47.00;37.00;;;;;4.11;47.42;98610.75;6210362;28;96663;-66
2023/01/30 02:00:03;;;;;;;;;46.40;38.00;;;;;4.01;47.62;98595.03;6208998;28;97084;-66
2023/01/30 02:03:17;;;;;;;;;47.60;38.80;;;;;3.97;47.75;98591.09;6203399;28;96341;-66
2023/01/30 02:06:22;;;;;;;;;44.20;36.00;;;;;3.88;48.00;98579.72;6195299;28;98427;-66
2023/01/30 02:09:27;;;;;;;;;45.00;38.00;;;;;3.88;48.12;98582.41;6193883;28;96626;-66
2023/01/30 02:12:33;;;;;;;;;44.00;36.00;;;;;3.84;48.23;98577.63;6203260;28;96389;-66
2023/01/30 02:15:36;;;;;;;;;43.60;37.60;;;;;3.78;48.36;98570.34;6205119;28;97106;-66
2023/01/30 02:18:43;;;;;;;;;42.40;35.40;;;;;3.67;48.54;98563.66;6221208;28;96406;-66
2023/01/30 02:22:28;;;;;;;;;48.50;38.50;;;;;3.61;48.74;98559.09;6205853;28;96448;-66
2023/01/30 02:26:01;;;;;;;;;43.20;35.60;;;;;3.56;48.50;98542.81;6222169;28;96401;-66
2023/01/30 02:29:35;;;;;;;;;46.25;37.00;;;;;3.59;48.86;98554.94;6204356;28;96222;-67
2023/01/30 02:32:49;;;;;;;;;45.80;38.00;;;;;3.51;48.68;98549.72;6206942;28;96291;-67
2023/01/30 02:36:04;;;;;;;;;46.80;38.80;;;;;3.56;48.89;98564.16;6209109;28;96263;-67
2023/01/30 02:39:16;;;;;;;;;43.00;35.60;;;;;3.35;49.27;98556.06;6211683;28;96223;-67
2023/01/30 02:42:26;;;;;;;;;49.00;38.80;;;;;3.33;48.98;98542.91;6206639;28;96246;-67
2023/01/30 02:45:36;;;;;;;;;43.75;35.75;;;;;3.20;48.96;98531.25;6203503;28;96277;-67
2023/01/30 02:48:46;;;;;;;;;44.50;36.50;;;;;3.35;48.91;98540.91;6218168;28;96216;-68
2023/01/30 02:51:52;;;;;;;;;45.00;36.75;;;;;3.31;49.34;98530.81;6214647;28;96352;-67
2023/01/30 02:54:56;;;;;;;;;48.50;39.00;;;;;3.28;49.11;98523.16;6208319;28;96337;-68
2023/01/30 02:58:01;;;;;;;;;44.00;35.40;;;;;3.25;49.22;98521.69;6200792;28;96923;-66
2023/01/30 03:01:23;;;;;;;;;45.40;38.00;;;;;3.23;49.31;98518.38;6196497;28;96334;-66
2023/01/30 03:04:52;;;;;;;;;46.50;38.00;;;;;3.12;49.55;98510.88;6207018;28;96358;-66
2023/01/30 03:08:08;;;;;;;;;41.60;35.00;;;;;3.04;49.82;98500.28;6203646;28;96564;-66
2023/01/30 03:11:13;;;;;;;;;43.40;35.40;;;;;2.89;50.03;98483.47;6189043;28;98289;-67
2023/01/30 03:14:24;;;;;;;;;42.00;34.75;;;;;2.98;49.64;98490.41;6214729;28;96297;-66
2023/01/30 03:17:30;;;;;;;;;48.00;37.00;;;;;2.94;50.13;98492.56;6205249;28;97081;-66
2023/01/30 03:20:39;;;;;;;;;49.60;39.60;;;;;2.87;50.27;98498.81;6205545;28;98990;-68
2023/01/30 03:23:45;;;;;;;;;44.50;35.00;;;;;2.76;50.71;98489.44;6196821;28;96201;-67
2023/01/30 03:26:53;;;;;;;;;41.40;35.00;;;;;2.74;50.75;98485.28;6216231;28;96546;-66
2023/01/30 03:29:56;;;;;;;;;47.60;38.00;;;;;2.84;50.50;98475.22;6214261;28;96200;-66
2023/01/30 03:33:00;;;;;;;;;40.60;34.80;;;;;2.82;50.58;98463.94;6212453;28;97177;-66
2023/01/30 03:36:05;;;;;;;;;44.80;35.20;;;;;2.83;50.64;98462.94;6210289;28;96252;-66
2023/01/30 03:39:10;;;;;;;;;46.60;38.00;;;;;2.82;50.49;98467.44;6198218;28;96416;-66
2023/01/30 03:42:14;;;;;;;;;42.75;35.50;;;;;2.83;50.30;98468.25;6197287;28;96502;-66
2023/01/30 03:45:17;;;;;;;;;38.00;33.00;;;;;2.90;49.80;98461.19;6197302;28;96239;-66
2023/01/30 03:48:23;;;;;;;;;36.20;32.20;;;;;2.84;50.07;98452.09;6214631;28;97066;-66
2023/01/30 03:51:31;;;;;;;;;34.50;30.00;;;;;2.76;50.01;98448.69;6190293;28;96572;-66
2023/01/30 03:54:34;;;;;;;;;39.00;34.00;;;;;2.78;49.91;98447.50;6200614;28;97033;-66
2023/01/30 03:57:38;;;;;;;;;37.60;32.00;;;;;2.77;49.44;98432.53;6202467;28;96290;-66
2023/01/30 04:00:42;;;;;;;;;38.00;33.00;;;;;2.74;49.96;98424.91;6206544;28;96948;-66
2023/01/30 04:03:46;;;;;;;;;38.50;32.00;;;;;2.72;49.67;98424.28;6205369;28;96956;-66
2023/01/30 04:06:51;;;;;;;;;41.60;33.60;;;;;2.73;49.52;98406.47;6191267;28;98863;-66
2023/01/30 04:09:55;;;;;;;;;41.75;35.00;;;;;2.68;50.38;98420.34;6206542;28;96431;-67
2023/01/30 04:13:00;;;;;;;;;41.00;33.00;;;;;2.67;50.45;98424.00;6178731;28;97013;-66
2023/01/30 04:16:17;;;;;;;;;41.00;35.00;;;;;2.68;50.14;98415.00;6196680;28;96225;-67
2023/01/30 04:19:39;;;;;;;;;41.00;35.00;;;;;2.69;50.01;98415.84;6216560;28;99488;-66
2023/01/30 04:22:44;;;;;;;;;42.00;34.67;;;;;2.61;50.04;98414.91;6204295;28;96494;-66
2023/01/30 04:25:47;;;;;;;;;39.75;35.00;;;;;2.22;51.11;98401.00;6186015;28;99274;-66
2023/01/30 04:28:53;;;;;;;;;41.00;33.00;;;;;2.27;51.53;98398.63;6203406;28;96371;-67
2023/01/30 04:31:57;;;;;;;;;37.75;33.75;;;;;2.29;51.29;98403.78;6187381;28;96825;-66
2023/01/30 04:35:06;;;;;;;;;50.20;39.60;;;;;2.21;51.77;98391.38;6197254;28;99058;-66
2023/01/30 04:38:10;;;;;;;;;45.00;35.00;;;;;2.26;50.91;98381.03;6215411;28;96509;-66
2023/01/30 04:41:14;;;;;;;;;40.75;35.25;;;;;2.28;50.85;98392.31;6213803;28;96812;-66
2023/01/30 04:44:20;;;;;;;;;36.00;30.80;;;;;2.32;50.65;98385.63;6221470;28;96880;-66
2023/01/30 04:47:35;;;;;;;;;36.00;32.40;;;;;2.38;50.49;98390.22;6194619;28;97319;-66
2023/01/30 04:50:38;;;;;;;;;39.60;32.60;;;;;2.43;50.27;98373.72;6208791;28;97226;-67
2023/01/30 04:53:43;;;;;;;;;36.75;33.00;;;;;2.45;50.56;98367.19;6216275;28;96631;-66
2023/01/30 04:56:47;;;;;;;;;40.50;34.25;;;;;2.47;50.18;98353.72;6199581;28;96709;-66
2023/01/30 04:59:50;;;;;;;;;39.40;32.80;;;;;2.42;50.38;98364.06;6190973;28;96601;-66
2023/01/30 05:02:54;;;;;;;;;39.00;33.60;;;;;2.46;50.33;98362.69;6184930;28;97157;-66
2023/01/30 05:05:58;;;;;;;;;42.20;35.00;;;;;2.41;49.73;98357.91;6214828;28;98289;-66
2023/01/30 05:09:04;;;;;;;;;41.25;33.50;;;;;2.52;50.09;98364.63;6212044;28;96085;-66
2023/01/30 05:12:08;;;;;;;;;39.60;35.00;;;;;2.50;49.34;98361.31;6214675;28;97423;-66
2023/01/30 05:15:12;;;;;;;;;40.00;35.00;;;;;2.47;49.56;98365.19;6221629;28;96332;-66
2023/01/30 05:18:16;;;;;;;;;34.00;30.00;;;;;2.54;50.02;98363.41;6207816;28;97061;-66
2023/01/30 05:21:21;;;;;;;;;40.25;35.00;;;;;2.49;49.71;98360.47;6202134;28;96895;-66
2023/01/30 05:24:26;;;;;;;;;32.00;30.00;;;;;2.58;49.69;98370.06;6214873;28;98204;-66
2023/01/30 05:27:29;;;;;;;;;35.20;31.60;;;;;2.68;49.23;98359.13;6199237;28;96447;-66
2023/01/30 05:30:32;;;;;;;;;42.67;35.67;;;;;2.71;49.08;98347.28;6205579;28;96361;-66
2023/01/30 05:33:36;;;;;;;;;37.25;32.25;;;;;2.59;49.86;98334.44;6200018;28;96402;-66
2023/01/30 05:36:39;;;;;;;;;41.00;34.75;;;;;2.64;49.32;98325.09;6198412;28;96260;-65
2023/01/30 05:39:44;;;;;;;;;39.00;33.60;;;;;2.57;49.68;98311.69;6214195;28;96220;-66
2023/01/30 05:42:48;;;;;;;;;42.00;33.00;;;;;2.64;49.47;98296.63;6211616;28;96372;-66
2023/01/30 05:45:52;;;;;;;;;37.50;32.75;;;;;2.76;49.10;98299.63;6217705;28;96691;-66
2023/01/30 05:48:55;;;;;;;;;32.00;31.00;;;;;2.73;48.84;98314.16;6213482;28;96301;-66
2023/01/30 05:51:59;;;;;;;;;38.40;33.00;;;;;2.74;49.08;98310.47;6188454;28;96711;-66
2023/01/30 05:55:04;;;;;;;;;37.50;31.25;;;;;2.81;48.80;98313.22;6213682;28;96808;-66
2023/01/30 05:58:07;;;;;;;;;35.50;32.00;;;;;2.88;48.52;98324.78;6208021;28;96234;-65
2023/01/30 06:01:12;;;;;;;;;39.75;33.00;;;;;2.93;48.39;98314.41;6203511;28;98787;-66
2023/01/30 06:04:16;;;;;;;;;35.40;31.40;;;;;2.98;47.86;98296.81;6200146;28;96822;-66
2023/01/30 06:07:19;;;;;;;;;41.00;32.20;;;;;3.01;47.91;98285.81;6202515;28;96332;-66
2023/01/30 06:10:24;;;;;;;;;40.40;35.00;;;;;3.02;47.48;98279.47;6211024;28;96975;-66
2023/01/30 06:13:27;;;;;;;;;35.50;31.25;;;;;3.10;46.94;98278.53;6209975;28;97674;-66
2023/01/30 06:16:30;;;;;;;;;37.00;32.00;;;;;3.16;46.78;98285.75;6205539;28;98345;-67
2023/01/30 06:19:34;;;;;;;;;35.00;32.00;;;;;3.20;46.18;98267.56;6213638;28;96498;-66
2023/01/30 06:22:37;;;;;;;;;36.60;32.00;;;;;3.32;46.32;98261.50;6181123;28;96466;-66
2023/01/30 06:25:44;;;;;;;;;40.60;33.60;;;;;3.32;45.90;98268.72;6187601;28;97255;-66
2023/01/30 06:28:48;;;;;;;;;35.80;31.00;;;;;3.35;45.54;98255.81;6209710;28;96590;-66
2023/01/30 06:31:51;;;;;;;;;34.80;31.20;;;;;3.41;45.07;98231.09;6212661;28;96473;-66
2023/01/30 06:34:55;;;;;;;;;31.20;28.80;;;;;3.48;44.92;98218.63;6209753;28;96652;-67
2023/01/30 06:37:58;;;;;;;;;35.00;32.00;;;;;3.61;44.36;98198.44;6209983;28;96853;-66
2023/01/30 06:41:03;;;;;;;;;33.40;30.00;;;;;3.61;44.16;98196.59;6197013;28;96702;-67
2023/01/30 06:44:06;;;;;;;;;30.80;27.40;;;;;3.72;43.90;98205.88;6204967;28;96823;-65
2023/01/30 06:47:09;;;;;;;;;28.20;26.60;;;;;3.79;43.75;98198.75;6206337;28;96333;-67
2023/01/30 06:50:13;;;;;;;;;32.40;29.00;;;;;3.78;43.39;98181.09;6195948;28;97135;-66
2023/01/30 06:53:16;;;;;;;;;31.00;28.40;;;;;3.84;43.11;98193.66;6215916;28;96296;-66
2023/01/30 06:56:21;;;;;;;;;26.00;25.00;;;;;3.90;43.29;98196.38;6199995;28;98758;-66
2023/01/30 06:59:24;;;;;;;;;28.50;26.00;;;;;3.90;42.84;98203.56;6203004;28;96193;-67
2023/01/30 07:02:33;;;;;;;;;31.00;27.00;;;;;4.06;42.20;98186.38;6206282;28;97193;-66
2023/01/30 07:05:37;;;;;;;;;30.00;26.60;;;;;4.13;42.22;98184.59;6205621;28;96250;-67
2023/01/30 07:08:40;;;;;;;;;27.40;25.00;;;;;4.16;42.07;98185.00;6198431;28;96164;-66
2023/01/30 07:11:46;;;;;;;;;21.40;21.00;;;;;4.19;42.10;98187.31;6194253;28;96611;-67
2023/01/30 07:14:49;;;;;;;;;27.40;25.00;;;;;4.24;42.00;98170.69;6199830;28;96393;-65
2023/01/30 07:17:53;;;;;;;;;23.80;22.00;;;;;4.25;42.43;98151.00;6207195;28;96345;-66
2023/01/30 07:20:56;;;;;;;;;28.00;25.40;;;;;4.23;42.60;98137.84;6203959;28;96259;-67
2023/01/30 07:24:00;;;;;;;;;26.00;24.00;;;;;4.36;42.18;98145.91;6208274;28;96359;-66
2023/01/30 07:27:04;;;;;;;;;23.60;23.00;;;;;4.48;41.55;98138.16;6200587;28;96261;-66
2023/01/30 07:30:09;;;;;;;;;25.40;21.60;;;;;4.59;41.19;98144.75;6204358;28;97420;-66
2023/01/30 07:33:12;;;;;;;;;20.80;19.80;;;;;4.65;40.80;98147.41;6204755;28;96874;-66
2023/01/30 07:36:16;;;;;;;;;21.00;20.00;;;;;4.74;40.44;98151.53;6200204;28;96499;-66
2023/01/30 07:39:19;;;;;;;;;20.25;20.25;;;;;4.81;40.59;98148.88;6207122;28;96647;-66
2023/01/30 07:42:24;;;;;;;;;23.50;22.50;;;;;4.95;40.58;98149.72;6213753;28;96764;-67
2023/01/30 07:45:34;;;;;;;;;25.00;22.00;;;;;4.98;40.61;98160.84;6204477;28;96493;-67
2023/01/30 07:48:37;;;;;;;;;20.40;19.00;;;;;5.15;40.66;98155.91;6224572;28;96314;-67
2023/01/30 07:51:41;;;;;;;;;20.50;20.50;;;;;5.22;40.12;98154.91;6199136;28;96675;-66
2023/01/30 07:54:44;;;;;;;;;24.75;23.00;;;;;5.23;40.13;98147.69;6218062;28;97435;-67
2023/01/30 07:57:49;;;;;;;;;25.00;23.25;;;;;5.28;40.07;98155.09;6188828;28;98564;-67
2023/01/30 08:00:55;;;;;;;;;25.00;23.00;;;;;5.34;39.77;98140.91;6203698;28;96235;-67
2023/01/30 08:03:58;;;;;;;;;28.75;27.25;;;;;5.45;39.77;98146.44;6199320;28;96200;-67
2023/01/30 08:07:02;;;;;;;;;25.00;23.80;;;;;5.34;39.66;98141.72;6211321;28;97128;-67
2023/01/30 08:10:06;;;;;;;;;29.00;27.00;;;;;5.37;39.84;98137.84;6207047;28;96261;-66
2023/01/30 08:13:14;;;;;;;;;26.20;25.00;;;;;5.37;39.59;98133.31;6200108;28;97252;-66
2023/01/30 08:16:17;;;;;;;;;29.00;26.25;;;;;5.41;39.83;98131.03;6197226;28;96893;-67
2023/01/30 08:19:20;;;;;;;;;27.00;23.33;;;;;5.49;40.02;98131.63;6193835;28;96394;-67
2023/01/30 08:22:24;;;;;;;;;29.20;26.80;;;;;5.49;39.51;98125.47;6209692;28;96334;-67
2023/01/30 08:25:27;;;;;;;;;30.80;27.80;;;;;5.43;39.82;98108.41;6196086;28;96539;-67
2023/01/30 08:28:32;;;;;;;;;24.40;22.40;;;;;5.56;39.67;98103.06;6191979;28;96843;-66
2023/01/30 08:31:36;;;;;;;;;30.25;26.00;;;;;5.65;39.70;98100.97;6198059;28;96545;-67
2023/01/30 08:34:39;;;;;;;;;27.00;26.00;;;;;5.60;39.45;98114.97;6202824;28;96218;-67
2023/01/30 08:37:43;;;;;;;;;30.20;28.20;;;;;5.60;39.19;98098.09;6201022;28;96478;-67
2023/01/30 08:40:46;;;;;;;;;28.60;26.00;;;;;5.72;39.45;98095.63;6195420;28;96875;-66
2023/01/30 08:43:51;;;;;;;;;27.67;26.00;;;;;5.79;39.24;98058.97;6194213;28;96575;-67
2023/01/30 08:46:54;;;;;;;;;27.50;25.00;;;;;6.25;39.17;98053.44;6205054;28;96250;-67
2023/01/30 08:49:57;;;;;;;;;24.25;23.00;;;;;7.52;36.89;98061.09;6210039;28;96184;-67
2023/01/30 08:53:04;;;;;;;;;22.75;21.25;;;;;8.42;34.87;98064.75;6209181;28;96209;-67
2023/01/30 08:56:08;;;;;;;;;25.40;24.00;;;;;8.63;35.20;98072.31;6212614;28;96411;-66
2023/01/30 08:59:12;;;;;;;;;24.00;23.00;;;;;8.48;35.11;98071.91;6212773;28;98351;-67
2023/01/30 09:02:16;;;;;;;;;25.60;23.40;;;;;8.54;35.49;98069.16;6213509;28;98342;-67
2023/01/30 09:05:19;;;;;;;;;24.50;22.50;;;;;8.95;34.74;98051.34;6205004;28;96211;-66
2023/01/30 09:08:24;;;;;;;;;23.00;21.00;;;;;10.36;32.84;98051.78;6206689;28;96074;-67
2023/01/30 09:11:28;;;;;;;;;19.40;18.60;;;;;11.83;30.34;98040.72;6209960;28;96480;-67
2023/01/30 09:14:32;;;;;;;;;19.60;18.60;;;;;13.44;28.06;98019.06;6206394;28;96707;-67
2023/01/30 09:17:36;;;;;;;;;20.20;18.20;;;;;14.11;27.51;98040.84;6202891;28;96474;-67
2023/01/30 09:20:40;;;;;;;;;22.00;21.40;;;;;13.61;27.43;98030.56;6215340;28;96631;-68
2023/01/30 09:23:43;;;;;;;;;20.80;17.00;;;;;12.85;28.90;98013.72;6201122;28;96680;-68
2023/01/30 09:26:46;;;;;;;;;17.60;16.60;;;;;11.85;30.03;98022.38;6209198;28;96465;-67
2023/01/30 09:29:51;;;;;;;;;21.00;19.00;;;;;10.80;31.38;98034.00;6211206;28;96868;-66
2023/01/30 09:32:55;;;;;;;;;22.00;20.00;;;;;10.17;32.79;98023.41;6212521;28;96726;-66
2023/01/30 09:35:58;;;;;;;;;20.00;18.50;;;;;9.62;33.89;98019.56;6211223;28;96698;-66
2023/01/30 09:39:01;;;;;;;;;19.25;18.00;;;;;9.19;34.85;98003.81;6201151;28;96432;-66
2023/01/30 09:42:27;;;;;;;;;20.00;17.60;;;;;8.65;35.72;98005.72;6203011;28;96094;-66
2023/01/30 09:45:41;;;;;;;;;18.00;17.50;;;;;8.28;36.76;97994.28;6215658;28;96415;-66
2023/01/30 09:48:56;;;;;;;;;18.00;16.75;;;;;7.96;37.34;97974.09;6202640;28;96454;-67
2023/01/30 09:52:14;;;;;;;;;18.00;17.00;;;;;7.98;37.83;97974.66;6212896;28;96291;-66
2023/01/30 09:55:21;;;;;;;;;24.00;21.80;;;;;7.57;38.37;97973.56;6208879;28;96073;-65
2023/01/30 09:58:29;;;;;;;;;18.50;17.00;;;;;7.49;38.60;97973.84;6209323;28;96306;-67
2023/01/30 10:01:48;;;;;;;;;21.40;19.00;;;;;7.26;39.09;97981.75;6208656;28;96452;-66
2023/01/30 10:04:55;;;;;;;;;18.00;17.00;;;;;7.18;39.78;97974.00;6206409;28;96888;-66
2023/01/30 10:08:35;;;;;;;;;17.60;17.00;;;;;6.87;40.24;97970.38;6202618;28;96311;-67
2023/01/30 10:11:59;;;;;;;;;21.60;21.00;;;;;6.88;40.40;97949.75;6199305;28;96176;-67
2023/01/30 10:15:18;;;;;;;;;19.00;15.75;;;;;6.81;40.60;97936.41;6200799;28;97752;-65
2023/01/30 10:18:51;;;;;;;;;21.40;20.00;;;;;6.64;41.07;97932.69;6238332;28;98338;-66
2023/01/30 10:22:02;;;;;;;;;19.00;17.20;;;;;6.60;41.52;97936.03;6236388;28;96238;-66
2023/01/30 10:25:20;;;;;;;;;21.20;19.40;;;;;6.57;41.67;97913.16;6207210;28;96209;-65
2023/01/30 10:28:29;;;;;;;;;21.00;20.40;;;;;6.54;42.12;97921.66;6213624;28;97084;-66
2023/01/30 10:31:39;;;;;;;;;20.00;20.00;;;;;6.50;42.27;97915.88;6217315;28;96205;-66
2023/01/30 10:34:48;;;;;;;;;23.75;20.50;;;;;6.58;42.18;97900.59;6214150;28;96249;-65
2023/01/30 10:37:59;;;;;;;;;21.20;19.20;;;;;6.55;42.54;97898.38;6211402;28;96890;-65
2023/01/30 10:41:11;;;;;;;;;22.00;20.00;;;;;6.62;42.62;97886.53;6213112;28;96300;-66
2023/01/30 10:44:17;;;;;;;;;25.25;23.75;;;;;6.48;42.39;97858.25;6221486;28;96304;-65
2023/01/30 10:47:43;;;;;;;;;21.20;19.20;;;;;6.61;42.79;97871.50;6209824;28;96225;-66
2023/01/30 10:50:56;;;;;;;;;20.40;20.40;;;;;6.66;42.58;97871.66;6211222;28;96331;-66
2023/01/30 10:54:03;;;;;;;;;20.00;18.00;;;;;6.71;42.76;97869.16;6207901;28;96289;-66
2023/01/30 10:57:19;;;;;;;;;23.40;22.40;;;;;6.80;42.49;97875.84;6216893;28;96890;-66
2023/01/30 11:00:29;;;;;;;;;18.75;17.25;;;;;6.86;42.36;97863.44;6202575;28;97275;-66
2023/01/30 11:03:37;;;;;;;;;19.40;18.80;;;;;6.72;43.41;97891.41;6213379;28;96133;-66
2023/01/30 11:06:42;;;;;;;;;16.60;15.60;;;;;6.73;43.86;97867.06;6220579;28;96436;-65
2023/01/30 11:09:48;;;;;;;;;18.60;18.20;;;;;6.72;44.23;97872.66;6216372;28;96313;-66
2023/01/30 11:12:53;;;;;;;;;20.80;19.80;;;;;6.69;44.24;97863.22;6209586;28;98507;-66
2023/01/30 11:16:00;;;;;;;;;21.40;20.20;;;;;6.63;45.07;97850.69;6209148;28;96750;-66
2023/01/30 11:19:05;;;;;;;;;20.00;18.00;;;;;6.48;45.55;97848.38;6207939;28;97102;-65
2023/01/30 11:22:26;;;;;;;;;21.75;20.75;;;;;6.60;45.18;97845.75;6208989;28;98237;-66
2023/01/30 11:25:29;;;;;;;;;18.00;17.00;;;;;6.78;44.91;97843.13;6207589;28;96934;-66
2023/01/30 11:28:41;;;;;;;;;22.60;21.20;;;;;6.71;45.20;97833.50;6210057;28;96831;-66
2023/01/30 11:31:49;;;;;;;;;21.00;21.00;;;;;6.79;45.19;97834.03;6200052;28;99081;-66
2023/01/30 11:35:15;;;;;;;;;21.60;18.60;;;;;6.63;46.14;97831.13;6211852;28;96348;-66
2023/01/30 11:38:23;;;;;;;;;23.00;20.00;;;;;6.63;46.29;97823.91;6207449;28;96405;-67
2023/01/30 11:41:27;;;;;;;;;23.40;21.40;;;;;6.67;46.49;97845.72;6203854;28;96191;-66
2023/01/30 11:44:33;;;;;;;;;24.60;23.40;;;;;6.39;46.89;97801.50;6199467;28;96635;-66
2023/01/30 11:47:37;;;;;;;;;22.00;21.00;;;;;6.58;46.65;97804.19;6197520;28;96310;-66
2023/01/30 11:50:46;;;;;;;;;24.40;22.40;;;;;6.55;47.13;97799.31;6206091;28;96660;-67
2023/01/30 11:53:58;;;;;;;;;22.75;21.25;;;;;6.59;47.36;97806.66;6203716;28;96350;-67
2023/01/30 11:57:04;;;;;;;;;19.00;18.00;;;;;6.55;47.61;97810.81;6199548;28;96297;-67
2023/01/30 12:00:17;;;;;;;;;22.80;21.20;;;;;6.32;48.44;97798.06;6206842;28;96493;-66
2023/01/30 12:03:24;;;;;;;;;24.00;22.25;;;;;6.20;49.28;97785.66;6208408;28;97430;-66
2023/01/30 12:06:31;;;;;;;;;21.50;20.00;;;;;6.23;49.65;97785.19;6210099;28;96190;-66
2023/01/30 12:09:37;;;;;;;;;22.00;20.00;;;;;6.01;50.91;97771.44;6213000;28;96668;-66
2023/01/30 12:12:49;;;;;;;;;23.50;22.50;;;;;5.84;51.72;97773.78;6212758;28;96640;-66
2023/01/30 12:16:02;;;;;;;;;24.00;22.20;;;;;5.79;52.52;97770.13;6211252;28;96803;-66
2023/01/30 12:19:12;;;;;;;;;20.40;20.00;;;;;5.89;52.39;97768.63;6219210;28;96385;-66
2023/01/30 12:22:26;;;;;;;;;21.00;20.40;;;;;5.94;52.17;97763.44;6215343;28;97115;-66
2023/01/30 12:25:38;;;;;;;;;26.60;24.00;;;;;5.85;52.64;97758.56;6210872;28;96607;-65
2023/01/30 12:28:50;;;;;;;;;24.00;22.00;;;;;5.94;52.60;97758.09;6217008;28;97595;-66
2023/01/30 12:32:05;;;;;;;;;23.80;21.40;;;;;5.98;52.25;97715.66;6213986;28;96252;-66
2023/01/30 12:35:15;;;;;;;;;26.00;24.40;;;;;6.02;52.44;97740.94;6209963;28;99540;-66
2023/01/30 12:38:34;;;;;;;;;25.60;24.60;;;;;6.09;52.29;97741.69;6211654;28;98824;-66
2023/01/30 12:41:56;;;;;;;;;25.20;23.60;;;;;6.20;52.00;97740.16;6217971;28;96785;-66
2023/01/30 12:45:16;;;;;;;;;27.40;25.00;;;;;6.05;52.69;97730.63;6224584;28;96454;-66
2023/01/30 12:48:38;;;;;;;;;24.00;20.60;;;;;5.93;52.92;97752.97;6210219;28;96275;-66
2023/01/30 12:52:16;;;;;;;;;23.40;21.20;;;;;6.03;53.26;97746.06;6210675;28;96232;-66
2023/01/30 12:55:30;;;;;;;;;24.00;24.00;;;;;6.14;53.25;97735.69;6206683;28;96206;-66
2023/01/30 12:58:44;;;;;;;;;28.60;23.60;;;;;6.32;53.04;97731.16;6220563;28;96473;-65
2023/01/30 13:01:59;;;;;;;;;25.25;21.25;;;;;6.45;52.50;97730.22;6222794;28;97177;-66
2023/01/30 13:05:20;;;;;;;;;25.00;23.33;;;;;6.51;52.16;97737.31;6215440;28;96454;-65
2023/01/30 13:08:59;;;;;;;;;26.00;23.00;;;;;6.36;52.56;97731.53;6187656;28;96305;-66
2023/01/30 13:12:13;;;;;;;;;24.00;22.25;;;;;6.38;52.38;97730.28;6187828;28;98341;-66
2023/01/30 13:15:25;;;;;;;;;26.00;24.40;;;;;6.26;52.67;97709.81;6203332;28;98833;-67
2023/01/30 13:18:35;;;;;;;;;26.00;23.00;;;;;6.33;52.66;97716.75;6212490;28;96278;-67
2023/01/30 13:21:46;;;;;;;;;24.20;21.40;;;;;6.30;52.75;97719.06;6197114;28;97054;-66
2023/01/30 13:24:59;;;;;;;;;23.40;21.00;;;;;6.28;53.00;97719.25;6209815;28;96356;-66
2023/01/30 13:28:10;;;;;;;;;24.80;23.00;;;;;6.21;53.28;97707.81;6204655;28;96269;-66
2023/01/30 13:31:20;;;;;;;;;25.40;24.00;;;;;6.11;53.75;97699.47;6208935;28;96307;-66
2023/01/30 13:34:28;;;;;;;;;22.40;21.80;;;;;5.88;54.71;97691.28;6204909;28;96287;-66
2023/01/30 13:37:32;;;;;;;;;23.25;22.00;;;;;5.91;55.40;97697.00;6196765;28;96435;-67
2023/01/30 13:40:39;;;;;;;;;26.60;24.40;;;;;5.81;55.98;97696.69;6210295;28;96241;-65
2023/01/30 13:43:49;;;;;;;;;22.00;20.40;;;;;5.72;56.01;97689.16;6214452;28;99038;-66
2023/01/30 13:46:56;;;;;;;;;24.80;22.20;;;;;5.84;55.54;97696.22;6214910;28;96747;-64
2023/01/30 13:50:18;;;;;;;;;24.00;21.25;;;;;5.93;55.37;97694.94;6209723;28;96367;-65
2023/01/30 13:53:32;;;;;;;;;20.00;19.00;;;;;5.95;55.10;97705.41;6215164;28;96883;-65
2023/01/30 13:56:41;;;;;;;;;28.40;27.00;;;;;5.94;55.22;97688.53;6200965;28;96775;-65
2023/01/30 14:00:08;;;;;;;;;23.40;22.00;;;;;6.04;54.91;97694.22;6203850;28;96294;-67
2023/01/30 14:03:30;;;;;;;;;25.00;22.00;;;;;5.97;55.33;97703.31;6211743;28;96923;-65
2023/01/30 14:06:38;;;;;;;;;22.40;20.60;;;;;5.91;55.23;97693.53;6194255;28;96158;-65
2023/01/30 14:09:45;;;;;;;;;25.00;23.00;;;;;5.97;54.92;97703.31;6213153;28;98387;-66
2023/01/30 14:12:51;;;;;;;;;22.00;21.00;;;;;6.07;55.10;97692.94;6213513;28;97222;-66
2023/01/30 14:15:57;;;;;;;;;27.00;25.00;;;;;5.99;55.23;97712.78;6206235;28;96276;-65
2023/01/30 14:19:20;;;;;;;;;25.40;22.80;;;;;5.94;55.58;97693.91;6196568;28;96903;-65
2023/01/30 14:22:28;;;;;;;;;20.00;18.00;;;;;5.87;56.04;97700.34;6204625;28;96752;-65
2023/01/30 14:25:34;;;;;;;;;21.00;18.00;;;;;5.93;55.83;97700.28;6195591;28;96335;-65
2023/01/30 14:28:45;;;;;;;;;19.60;19.00;;;;;5.97;55.35;97697.97;6218641;28;98423;-65
2023/01/30 14:31:50;;;;;;;;;19.00;17.00;;;;;5.88;55.73;97700.13;6200114;28;96312;-65
2023/01/30 14:35:19;;;;;;;;;21.00;20.00;;;;;5.86;55.56;97693.34;6207581;28;96246;-65
2023/01/30 14:38:23;;;;;;;;;18.50;17.75;;;;;5.87;55.11;97700.34;6198072;28;96204;-66
2023/01/30 14:41:27;;;;;;;;;19.00;18.75;;;;;6.00;54.84;97684.16;6203748;28;96518;-65